Meath Environmental Platform

Observations

Time Sensor AQI SAQ Temp °C Hum % Pres Pa CO μg/m³ H₂S μg/m³ NO μg/m³ NO₂ μg/m³ O₃ μg/m³ SO₂ μg/m³ CO₂e PPM VOC PPM PM1 μg/m³ PM2.5 μg/m³ PM4 μg/m³ PM10 μg/m³ TPS µm
Wednesday 12 August 2026
18:29 Trim Patrick St 3 39.1 28 69,864 0 4.95 0 13.64 84.92 26.95 3.71 10.23 11.25
18:28 Trim Market St 3 33.8 33 66,511 0 0.32 0.17 13.28 80.25 0 3.56 6.41 9.22
18:28 Trim Patrick St 3 39.2 28 69,862 0 0 0 13.52 90.32 26.14 3.71 10.24 11.27
18:27 Trim Patrick St 3 39.1 28 69,858 0 0 0 13.34 128.99 27.31 3.71 10.27 11.29
18:26 Trim Patrick St 3 39.1 28 69,850 0 0 0 12.91 98.52 27.6 5.43 11.89 13.08
18:26 Trim Market St 3 33.9 33 66,517 0 0 0.17 13.17 89.03 0 0.71 3.72 4.1
18:25 Trim Patrick St 3 39.1 28 69,838 0 0 0 13.4 126.97 26.9 3.71 10.25 11.28
18:25 Trim Market St 3 33.9 33 66,525 0 1.15 0.14 13.88 93.19 0 2.85 5.34 5.88
18:24 Trim Patrick St 3 39 30 69,854 0 0 0 12.57 86.11 26.79 3.71 10.13 11.14
18:23 Trim Patrick St 3 38.9 28 69,846 0 0.58 0 13.34 102.83 26.52 4.57 11.05 12.15
18:23 Trim Market St 3 33.9 33 66,517 0 0 0.15 13.2 87.81 0 2.14 7.5 10.92
18:22 Trim Patrick St 3 38.8 28 69,836 0 0 0 13.53 83.8 25.16 4.57 11.86 13.05
18:22 Trim Market St 3 33.9 33 66,523 0 0 0.13 13.58 70.34 0 2.14 4.8 5.28
18:21 Trim Patrick St 3 38.7 28 69,824 0 0 0 13.37 120.62 26.08 3.71 10.22 11.24
18:21 Trim Market St 3 33.9 33 66,529 0 0 0.13 13.06 77.49 0 2.85 5.34 5.87
18:20 Trim Patrick St 3 38.8 28 69,840 0 0 0 13.25 124.66 26.55 5.43 11.87 13.06
18:20 Trim Market St 3 33.9 33 66,507 0 0 0.14 12.99 71.63 0 1.43 4.25 4.68
18:19 Trim Patrick St 3 38.8 27 69,834 0 0 0 10.46 85.7 27.46 3.71 11.09 12.2
18:19 Trim Market St 3 34 33 66,511 0 1.57 0.12 13.32 75.84 0 2.85 5.87 6.45
18:18 Trim Patrick St 3 38.8 28 69,856 0 0 0 13.25 116.26 26.6 3.71 11.04 12.14